Fort Dodge Regional Airport
KFOD : now visible

Aeroporto :











RITROVATECI SU...

 
LOGIN :

Iscrizione | Disclaimer

   EN    FR    IT 

 









Sommario :    VFR   VFR Marginale   IFR   IFR Intensivo   IFR Molto Intensivo
Visibilità : 
Base nubi : 
>= 8 km
>= 3000ft
5 / 8 km
1000 / 3000 ft
1500m / 5 km
500 / 1000 ft
800 / 1500m
200 / 500 ft
< 800m
< 200 ft
Simboli :   Temporali  Nebbia  Neve Forte  Precipitazioni Forti  Vento > 20 kt






- Altitudine del aeroporto : 1156 ft
- Codice IATA : FOD


KFOD - Fort Dodge Regional

ULTIMO METAR :
  • 151556Z AUTO 06004KT 10SM SCT090 SCT110 M13/M17 A3012 RMK AO2 SLP258 T11331167 FZRANO

METARs OBSOLETI :
  • 151456Z AUTO 04003KT 10SM BKN100 OVC120 M15/M17 A3012 RMK AO2 SLP257 T11501172 53010 FZRANO
  • 151356Z AUTO 00000KT 10SM BKN110 M16/M18 A3010 RMK AO2 SLP252 T11611183 FZRANO

TAF KFOD
Valido dal 15 a 12 ore il 16 a 12 ore UTC


151120Z 1512/1612 VRB03KT P6SM SCT150
FM152300 19004KT 5SM -SN BR OVC025
FM160200 15005KT P6SM BKN030



MetMap, La meteo Aeronautica in un colpo d'occhio ! - Copyright ORBIFLY Dicembre 2007 - Disclaimer

ORBIFLY MET'MAP TEAM :

Programmazione e sviluppo : Alexandra Zaïnal
Concezione : Baudouin d'Aumeries
Aiuto per la programmazione : Marc-Olivier Méhu
Supporto tecnico e logistico : Manuel Goepfert
Aiuto per la traduzione : Arnaldo La Scala

Contatto : metmap@orbifly.com




FONTI E CREDITI :

   NOAA       Earth
Advisory